sensor_id;sensor_type;location;lat;lon;timestamp;pressure;altitude;pressure_sealevel;temperature;humidity
75656;BME280;64252;51.094;13.714;2023-06-04T00:01:52;100855.09;;;8.60;64.97
75656;BME280;64252;51.094;13.714;2023-06-04T00:04:17;100857.91;;;8.60;65.76
75656;BME280;64252;51.094;13.714;2023-06-04T00:06:43;100853.38;;;8.56;65.40
75656;BME280;64252;51.094;13.714;2023-06-04T00:09:09;100855.00;;;8.57;64.96
75656;BME280;64252;51.094;13.714;2023-06-04T00:11:34;100842.13;;;8.56;65.27
75656;BME280;64252;51.094;13.714;2023-06-04T00:14:02;100846.28;;;8.46;65.48
75656;BME280;64252;51.094;13.714;2023-06-04T00:16:28;100845.28;;;8.38;65.40
75656;BME280;64252;51.094;13.714;2023-06-04T00:18:54;100847.94;;;8.47;66.94
75656;BME280;64252;51.094;13.714;2023-06-04T00:21:19;100848.00;;;8.35;67.07
75656;BME280;64252;51.094;13.714;2023-06-04T00:23:45;100840.38;;;8.35;67.07
75656;BME280;64252;51.094;13.714;2023-06-04T00:26:11;100837.72;;;8.27;67.30
75656;BME280;64252;51.094;13.714;2023-06-04T00:28:38;100842.44;;;8.23;67.53
75656;BME280;64252;51.094;13.714;2023-06-04T00:31:07;100834.91;;;8.27;67.74
75656;BME280;64252;51.094;13.714;2023-06-04T00:33:32;100831.91;;;8.20;68.18
75656;BME280;64252;51.094;13.714;2023-06-04T00:35:58;100833.47;;;8.17;67.87
75656;BME280;64252;51.094;13.714;2023-06-04T00:38:25;100842.53;;;8.11;67.95
75656;BME280;64252;51.094;13.714;2023-06-04T00:40:50;100830.56;;;8.14;68.25
75656;BME280;64252;51.094;13.714;2023-06-04T00:43:16;100830.91;;;8.12;68.46
75656;BME280;64252;51.094;13.714;2023-06-04T00:45:41;100834.00;;;8.07;69.19
75656;BME280;64252;51.094;13.714;2023-06-04T00:48:08;100826.63;;;8.03;68.75
75656;BME280;64252;51.094;13.714;2023-06-04T00:50:35;100835.09;;;8.03;69.35
75656;BME280;64252;51.094;13.714;2023-06-04T00:53:01;100833.69;;;7.97;69.16
75656;BME280;64252;51.094;13.714;2023-06-04T00:55:28;100828.81;;;7.93;68.94
75656;BME280;64252;51.094;13.714;2023-06-04T00:57:53;100821.53;;;7.92;69.96
75656;BME280;64252;51.094;13.714;2023-06-04T01:00:19;100828.59;;;7.86;69.58
75656;BME280;64252;51.094;13.714;2023-06-04T01:02:47;100830.16;;;7.84;70.14
75656;BME280;64252;51.094;13.714;2023-06-04T01:07:52;100824.88;;;7.82;71.26
75656;BME280;64252;51.094;13.714;2023-06-04T01:10:18;100821.88;;;7.75;70.89
75656;BME280;64252;51.094;13.714;2023-06-04T01:12:47;100828.59;;;7.71;71.72
75656;BME280;64252;51.094;13.714;2023-06-04T01:15:12;100822.41;;;7.65;71.45
75656;BME280;64252;51.094;13.714;2023-06-04T01:17:44;100814.88;;;7.69;72.18
75656;BME280;64252;51.094;13.714;2023-06-04T01:25:41;100822.41;;;7.65;72.17
75656;BME280;64252;51.094;13.714;2023-06-04T01:28:11;100825.47;;;7.60;72.23
75656;BME280;64252;51.094;13.714;2023-06-04T01:30:39;100828.09;;;7.53;72.62
75656;BME280;64252;51.094;13.714;2023-06-04T01:33:10;100809.84;;;7.47;72.81
75656;BME280;64252;51.094;13.714;2023-06-04T01:35:36;100811.84;;;7.46;73.53
75656;BME280;64252;51.094;13.714;2023-06-04T01:38:02;100818.06;;;7.40;73.88
75656;BME280;64252;51.094;13.714;2023-06-04T01:40:28;100821.13;;;7.35;73.75
75656;BME280;64252;51.094;13.714;2023-06-04T01:42:56;100823.94;;;7.35;74.04
75656;BME280;64252;51.094;13.714;2023-06-04T01:45:22;100822.66;;;7.32;74.64
75656;BME280;64252;51.094;13.714;2023-06-04T01:47:48;100818.94;;;7.28;75.41
75656;BME280;64252;51.094;13.714;2023-06-04T01:50:15;100824.91;;;7.27;74.93
75656;BME280;64252;51.094;13.714;2023-06-04T01:52:40;100824.47;;;7.25;74.85
75656;BME280;64252;51.094;13.714;2023-06-04T01:55:08;100828.44;;;7.24;75.59
75656;BME280;64252;51.094;13.714;2023-06-04T01:57:35;100827.25;;;7.25;75.97
75656;BME280;64252;51.094;13.714;2023-06-04T02:00:02;100823.50;;;7.21;76.01
75656;BME280;64252;51.094;13.714;2023-06-04T02:02:39;100825.16;;;7.22;76.62
75656;BME280;64252;51.094;13.714;2023-06-04T02:05:09;100815.56;;;7.23;76.56
75656;BME280;64252;51.094;13.714;2023-06-04T02:07:39;100818.72;;;7.21;76.39
75656;BME280;64252;51.094;13.714;2023-06-04T02:10:09;100824.72;;;7.20;76.58
75656;BME280;64252;51.094;13.714;2023-06-04T02:12:37;100825.78;;;7.15;76.77
75656;BME280;64252;51.094;13.714;2023-06-04T02:15:03;100830.34;;;7.07;77.35
75656;BME280;64252;51.094;13.714;2023-06-04T02:17:29;100827.78;;;7.02;77.45
75656;BME280;64252;51.094;13.714;2023-06-04T02:19:58;100821.34;;;7.02;77.55
75656;BME280;64252;51.094;13.714;2023-06-04T02:22:24;100832.13;;;7.00;77.80
75656;BME280;64252;51.094;13.714;2023-06-04T02:24:50;100833.63;;;6.97;78.52
75656;BME280;64252;51.094;13.714;2023-06-04T02:27:16;100830.81;;;6.97;78.29
75656;BME280;64252;51.094;13.714;2023-06-04T02:29:42;100828.25;;;6.92;78.27
75656;BME280;64252;51.094;13.714;2023-06-04T02:32:09;100829.09;;;6.93;78.27
75656;BME280;64252;51.094;13.714;2023-06-04T02:34:35;100830.16;;;6.88;78.33
75656;BME280;64252;51.094;13.714;2023-06-04T02:37:01;100830.63;;;6.90;78.16
75656;BME280;64252;51.094;13.714;2023-06-04T02:39:29;100832.50;;;6.86;79.08
75656;BME280;64252;51.094;13.714;2023-06-04T02:41:55;100832.50;;;6.86;79.11
75656;BME280;64252;51.094;13.714;2023-06-04T02:44:21;100831.00;;;6.77;79.22
75656;BME280;64252;51.094;13.714;2023-06-04T02:46:46;100834.88;;;6.72;79.63
75656;BME280;64252;51.094;13.714;2023-06-04T02:49:12;100829.50;;;6.67;79.88
75656;BME280;64252;51.094;13.714;2023-06-04T02:51:43;100836.25;;;6.66;79.54
75656;BME280;64252;51.094;13.714;2023-06-04T02:54:10;100834.84;;;6.60;79.46
75656;BME280;64252;51.094;13.714;2023-06-04T02:56:38;100841.66;;;6.59;79.82
75656;BME280;64252;51.094;13.714;2023-06-04T02:59:04;100841.97;;;6.70;79.83
75656;BME280;64252;51.094;13.714;2023-06-04T03:01:30;100846.56;;;6.62;80.34
75656;BME280;64252;51.094;13.714;2023-06-04T03:03:56;100840.84;;;6.58;80.19
75656;BME280;64252;51.094;13.714;2023-06-04T03:06:26;100843.28;;;6.60;80.39
75656;BME280;64252;51.094;13.714;2023-06-04T03:08:52;100836.03;;;6.59;80.31
75656;BME280;64252;51.094;13.714;2023-06-04T03:11:18;100833.13;;;6.68;80.17
75656;BME280;64252;51.094;13.714;2023-06-04T03:13:48;100834.88;;;6.72;80.47
75656;BME280;64252;51.094;13.714;2023-06-04T03:16:14;100846.53;;;6.74;80.30
75656;BME280;64252;51.094;13.714;2023-06-04T03:18:40;100846.09;;;6.72;80.40
75656;BME280;64252;51.094;13.714;2023-06-04T03:21:06;100843.97;;;6.81;80.17
75656;BME280;64252;51.094;13.714;2023-06-04T03:23:35;100847.00;;;6.76;80.05
75656;BME280;64252;51.094;13.714;2023-06-04T03:26:02;100844.66;;;6.78;79.91
75656;BME280;64252;51.094;13.714;2023-06-04T03:28:29;100842.31;;;6.80;80.18
75656;BME280;64252;51.094;13.714;2023-06-04T03:30:55;100859.28;;;6.84;79.87
75656;BME280;64252;51.094;13.714;2023-06-04T03:33:22;100852.84;;;6.83;80.24
75656;BME280;64252;51.094;13.714;2023-06-04T03:35:55;100857.06;;;6.89;80.23
75656;BME280;64252;51.094;13.714;2023-06-04T03:38:25;100851.00;;;6.87;80.29
75656;BME280;64252;51.094;13.714;2023-06-04T03:40:51;100857.97;;;6.93;80.07
75656;BME280;64252;51.094;13.714;2023-06-04T03:43:20;100853.28;;;6.97;80.46
75656;BME280;64252;51.094;13.714;2023-06-04T03:45:49;100860.78;;;7.05;80.60
75656;BME280;64252;51.094;13.714;2023-06-04T03:48:15;100855.16;;;7.05;79.96
75656;BME280;64252;51.094;13.714;2023-06-04T03:50:42;100862.97;;;7.12;79.58
75656;BME280;64252;51.094;13.714;2023-06-04T03:53:09;100865.63;;;7.21;79.54
75656;BME280;64252;51.094;13.714;2023-06-04T03:55:35;100860.41;;;7.19;79.82
75656;BME280;64252;51.094;13.714;2023-06-04T03:58:03;100864.69;;;7.29;79.03
75656;BME280;64252;51.094;13.714;2023-06-04T04:00:29;100865.63;;;7.33;77.92
75656;BME280;64252;51.094;13.714;2023-06-04T04:02:58;100868.19;;;7.38;78.46
75656;BME280;64252;51.094;13.714;2023-06-04T04:05:28;100875.53;;;7.42;78.35
75656;BME280;64252;51.094;13.714;2023-06-04T04:07:53;100878.44;;;7.46;77.56
75656;BME280;64252;51.094;13.714;2023-06-04T04:10:23;100868.13;;;7.50;77.39
75656;BME280;64252;51.094;13.714;2023-06-04T04:12:49;100883.09;;;7.54;77.09
75656;BME280;64252;51.094;13.714;2023-06-04T04:15:18;100880.84;;;7.60;76.83
75656;BME280;64252;51.094;13.714;2023-06-04T04:17:44;100880.03;;;7.59;77.16
75656;BME280;64252;51.094;13.714;2023-06-04T04:20:10;100878.72;;;7.69;76.93
75656;BME280;64252;51.094;13.714;2023-06-04T04:22:40;100875.75;;;7.77;76.02
75656;BME280;64252;51.094;13.714;2023-06-04T04:25:08;100880.75;;;7.84;76.01
75656;BME280;64252;51.094;13.714;2023-06-04T04:27:52;100885.78;;;7.90;75.81
75656;BME280;64252;51.094;13.714;2023-06-04T04:30:19;100872.63;;;7.94;76.53
75656;BME280;64252;51.094;13.714;2023-06-04T04:32:49;100885.44;;;8.08;75.35
75656;BME280;64252;51.094;13.714;2023-06-04T04:35:19;100887.44;;;8.07;75.86
75656;BME280;64252;51.094;13.714;2023-06-04T04:37:46;100877.66;;;8.17;75.06
75656;BME280;64252;51.094;13.714;2023-06-04T04:40:14;100881.03;;;8.22;74.10
75656;BME280;64252;51.094;13.714;2023-06-04T04:42:44;100878.88;;;8.31;73.94
75656;BME280;64252;51.094;13.714;2023-06-04T04:45:12;100881.34;;;8.33;73.92
75656;BME280;64252;51.094;13.714;2023-06-04T04:47:38;100870.34;;;8.44;74.13
75656;BME280;64252;51.094;13.714;2023-06-04T04:50:04;100873.63;;;8.61;73.25
75656;BME280;64252;51.094;13.714;2023-06-04T04:52:32;100874.69;;;8.72;72.85
75656;BME280;64252;51.094;13.714;2023-06-04T04:54:58;100876.22;;;8.86;72.92
75656;BME280;64252;51.094;13.714;2023-06-04T04:57:26;100889.44;;;9.01;72.04
75656;BME280;64252;51.094;13.714;2023-06-04T04:59:54;100874.94;;;8.99;72.18
75656;BME280;64252;51.094;13.714;2023-06-04T05:02:20;100877.91;;;9.06;71.86
75656;BME280;64252;51.094;13.714;2023-06-04T05:04:47;100878.78;;;10.44;67.96
75656;BME280;64252;51.094;13.714;2023-06-04T05:07:14;100872.16;;;14.31;56.47
75656;BME280;64252;51.094;13.714;2023-06-04T05:09:40;100877.09;;;16.86;48.58
75656;BME280;64252;51.094;13.714;2023-06-04T05:12:06;100863.72;;;18.56;44.38
75656;BME280;64252;51.094;13.714;2023-06-04T05:14:32;100873.59;;;20.27;40.47
75656;BME280;64252;51.094;13.714;2023-06-04T05:17:02;100876.25;;;20.17;40.65
75656;BME280;64252;51.094;13.714;2023-06-04T05:19:29;100880.56;;;21.14;38.11
75656;BME280;64252;51.094;13.714;2023-06-04T05:22:01;100875.31;;;22.40;36.71
75656;BME280;64252;51.094;13.714;2023-06-04T05:24:27;100876.75;;;22.73;35.06
75656;BME280;64252;51.094;13.714;2023-06-04T05:26:56;100876.84;;;22.95;34.64
75656;BME280;64252;51.094;13.714;2023-06-04T05:29:23;100881.56;;;22.77;34.61
75656;BME280;64252;51.094;13.714;2023-06-04T05:31:49;100873.56;;;23.66;33.95
75656;BME280;64252;51.094;13.714;2023-06-04T05:34:18;100883.22;;;22.23;36.12
75656;BME280;64252;51.094;13.714;2023-06-04T05:36:46;100884.31;;;22.80;34.63
75656;BME280;64252;51.094;13.714;2023-06-04T05:39:12;100888.13;;;23.02;35.54
75656;BME280;64252;51.094;13.714;2023-06-04T05:41:49;100889.81;;;21.95;34.83
75656;BME280;64252;51.094;13.714;2023-06-04T05:44:16;100892.13;;;22.00;35.23
75656;BME280;64252;51.094;13.714;2023-06-04T05:46:41;100883.84;;;22.94;34.22
75656;BME280;64252;51.094;13.714;2023-06-04T05:49:08;100878.31;;;23.00;33.82
75656;BME280;64252;51.094;13.714;2023-06-04T05:51:35;100891.31;;;22.41;34.75
75656;BME280;64252;51.094;13.714;2023-06-04T05:54:01;100883.97;;;22.91;33.66
75656;BME280;64252;51.094;13.714;2023-06-04T05:56:28;100880.63;;;24.08;32.16
75656;BME280;64252;51.094;13.714;2023-06-04T05:58:55;100883.00;;;23.44;32.78
75656;BME280;64252;51.094;13.714;2023-06-04T06:01:23;100891.72;;;24.93;31.17
75656;BME280;64252;51.094;13.714;2023-06-04T06:03:50;100889.44;;;23.48;32.97
75656;BME280;64252;51.094;13.714;2023-06-04T06:06:17;100889.78;;;24.16;32.33
75656;BME280;64252;51.094;13.714;2023-06-04T06:08:43;100897.22;;;24.38;31.76
75656;BME280;64252;51.094;13.714;2023-06-04T06:11:09;100889.78;;;24.16;32.26
75656;BME280;64252;51.094;13.714;2023-06-04T06:13:35;100883.91;;;25.12;30.23
75656;BME280;64252;51.094;13.714;2023-06-04T06:16:00;100884.72;;;25.21;29.98
75656;BME280;64252;51.094;13.714;2023-06-04T06:18:27;100891.22;;;24.64;30.82
75656;BME280;64252;51.094;13.714;2023-06-04T06:20:53;100882.22;;;24.53;30.68
75656;BME280;64252;51.094;13.714;2023-06-04T06:23:18;100893.97;;;24.67;31.27
75656;BME280;64252;51.094;13.714;2023-06-04T06:25:46;100884.50;;;23.71;32.48
75656;BME280;64252;51.094;13.714;2023-06-04T06:28:19;100890.97;;;24.71;30.96
75656;BME280;64252;51.094;13.714;2023-06-04T06:30:46;100893.22;;;25.16;32.21
75656;BME280;64252;51.094;13.714;2023-06-04T06:33:13;100893.53;;;24.16;32.67
75656;BME280;64252;51.094;13.714;2023-06-04T06:35:38;100894.47;;;25.64;29.85
75656;BME280;64252;51.094;13.714;2023-06-04T06:38:05;100898.97;;;25.92;29.78
75656;BME280;64252;51.094;13.714;2023-06-04T06:40:30;100901.06;;;25.83;28.90
75656;BME280;64252;51.094;13.714;2023-06-04T06:42:56;100902.16;;;24.90;30.30
75656;BME280;64252;51.094;13.714;2023-06-04T06:45:22;100899.03;;;24.23;30.80
75656;BME280;64252;51.094;13.714;2023-06-04T06:47:47;100904.97;;;25.30;30.07
75656;BME280;64252;51.094;13.714;2023-06-04T06:50:13;100904.41;;;25.90;29.40
75656;BME280;64252;51.094;13.714;2023-06-04T06:52:39;100898.63;;;25.81;29.63
75656;BME280;64252;51.094;13.714;2023-06-04T06:55:04;100899.06;;;26.94;31.53
75656;BME280;64252;51.094;13.714;2023-06-04T06:57:30;100902.88;;;27.10;27.60
75656;BME280;64252;51.094;13.714;2023-06-04T06:59:56;100900.06;;;26.40;28.99
75656;BME280;64252;51.094;13.714;2023-06-04T07:02:22;100902.81;;;26.77;28.98
75656;BME280;64252;51.094;13.714;2023-06-04T07:04:48;100904.44;;;26.08;29.54
75656;BME280;64252;51.094;13.714;2023-06-04T07:07:13;100906.38;;;25.93;29.71
75656;BME280;64252;51.094;13.714;2023-06-04T07:09:39;100900.06;;;26.40;29.86
75656;BME280;64252;51.094;13.714;2023-06-04T07:12:05;100899.28;;;25.85;30.03
75656;BME280;64252;51.094;13.714;2023-06-04T07:14:31;100898.31;;;26.06;29.28
75656;BME280;64252;51.094;13.714;2023-06-04T07:16:57;100897.38;;;26.70;30.85
75656;BME280;64252;51.094;13.714;2023-06-04T07:19:23;100897.22;;;27.39;29.62
75656;BME280;64252;51.094;13.714;2023-06-04T07:21:49;100895.22;;;27.54;28.52
75656;BME280;64252;51.094;13.714;2023-06-04T07:24:15;100895.22;;;26.97;28.50
75656;BME280;64252;51.094;13.714;2023-06-04T07:26:41;100895.97;;;27.07;30.17
75656;BME280;64252;51.094;13.714;2023-06-04T07:29:07;100896.00;;;26.47;29.31
75656;BME280;64252;51.094;13.714;2023-06-04T07:31:32;100894.56;;;26.93;29.31
75656;BME280;64252;51.094;13.714;2023-06-04T07:33:58;100884.97;;;27.11;29.86
75656;BME280;64252;51.094;13.714;2023-06-04T07:36:24;100890.66;;;26.63;29.47
75656;BME280;64252;51.094;13.714;2023-06-04T07:38:49;100893.25;;;27.27;28.53
75656;BME280;64252;51.094;13.714;2023-06-04T07:41:15;100889.97;;;27.11;27.87
75656;BME280;64252;51.094;13.714;2023-06-04T07:43:42;100891.88;;;28.23;29.14
75656;BME280;64252;51.094;13.714;2023-06-04T07:46:08;100880.47;;;28.20;27.39
75656;BME280;64252;51.094;13.714;2023-06-04T07:48:35;100886.25;;;26.77;28.97
75656;BME280;64252;51.094;13.714;2023-06-04T07:51:01;100888.66;;;27.68;27.83
75656;BME280;64252;51.094;13.714;2023-06-04T07:53:28;100887.19;;;27.49;28.04
75656;BME280;64252;51.094;13.714;2023-06-04T07:55:54;100889.88;;;27.29;28.18
75656;BME280;64252;51.094;13.714;2023-06-04T07:58:20;100889.13;;;27.43;30.11
75656;BME280;64252;51.094;13.714;2023-06-04T08:00:46;100882.38;;;25.47;29.20
75656;BME280;64252;51.094;13.714;2023-06-04T08:03:11;100885.09;;;23.87;31.05
75656;BME280;64252;51.094;13.714;2023-06-04T08:05:37;100884.63;;;23.07;31.91
75656;BME280;64252;51.094;13.714;2023-06-04T08:08:03;100882.78;;;22.38;32.17
75656;BME280;64252;51.094;13.714;2023-06-04T08:10:31;100886.47;;;23.14;31.54
75656;BME280;64252;51.094;13.714;2023-06-04T08:12:57;100896.47;;;22.46;34.27
75656;BME280;64252;51.094;13.714;2023-06-04T08:15:23;100885.56;;;22.00;34.42
75656;BME280;64252;51.094;13.714;2023-06-04T08:17:48;100884.44;;;21.52;33.77
75656;BME280;64252;51.094;13.714;2023-06-04T08:20:14;100888.91;;;21.69;33.61
75656;BME280;64252;51.094;13.714;2023-06-04T08:22:40;100874.63;;;21.05;32.98
75656;BME280;64252;51.094;13.714;2023-06-04T08:25:07;100884.94;;;21.34;33.99
75656;BME280;64252;51.094;13.714;2023-06-04T08:27:34;100876.66;;;21.36;32.70
75656;BME280;64252;51.094;13.714;2023-06-04T08:30:00;100878.50;;;21.59;33.84
75656;BME280;64252;51.094;13.714;2023-06-04T08:32:27;100881.63;;;21.65;33.03
75656;BME280;64252;51.094;13.714;2023-06-04T08:34:53;100878.69;;;22.10;34.08
75656;BME280;64252;51.094;13.714;2023-06-04T08:37:18;100883.19;;;22.11;32.84
75656;BME280;64252;51.094;13.714;2023-06-04T08:39:44;100880.69;;;21.84;32.98
75656;BME280;64252;51.094;13.714;2023-06-04T08:42:20;100886.97;;;21.50;31.34
75656;BME280;64252;51.094;13.714;2023-06-04T08:44:50;100877.91;;;21.52;31.48
75656;BME280;64252;51.094;13.714;2023-06-04T08:47:19;100880.59;;;21.42;32.44
75656;BME280;64252;51.094;13.714;2023-06-04T08:49:49;100887.69;;;21.83;32.06
75656;BME280;64252;51.094;13.714;2023-06-04T08:52:15;100878.00;;;21.77;32.02
75656;BME280;64252;51.094;13.714;2023-06-04T08:54:41;100878.94;;;22.03;31.20
75656;BME280;64252;51.094;13.714;2023-06-04T08:57:08;100872.56;;;21.21;31.28
75656;BME280;64252;51.094;13.714;2023-06-04T08:59:35;100878.66;;;21.23;30.97
75656;BME280;64252;51.094;13.714;2023-06-04T09:02:01;100880.81;;;21.19;31.59
75656;BME280;64252;51.094;13.714;2023-06-04T09:04:27;100872.44;;;21.41;31.00
75656;BME280;64252;51.094;13.714;2023-06-04T09:06:54;100876.41;;;21.15;31.02
75656;BME280;64252;51.094;13.714;2023-06-04T09:09:21;100878.13;;;21.57;30.58
75656;BME280;64252;51.094;13.714;2023-06-04T09:11:54;100877.97;;;21.93;30.29
75656;BME280;64252;51.094;13.714;2023-06-04T09:14:20;100874.78;;;21.75;30.96
75656;BME280;64252;51.094;13.714;2023-06-04T09:19:58;100872.06;;;22.25;31.03
75656;BME280;64252;51.094;13.714;2023-06-04T09:22:33;100871.44;;;22.05;28.99
75656;BME280;64252;51.094;13.714;2023-06-04T09:24:59;100882.94;;;21.76;29.59
75656;BME280;64252;51.094;13.714;2023-06-04T09:27:25;100876.22;;;21.67;31.01
75656;BME280;64252;51.094;13.714;2023-06-04T09:29:55;100873.63;;;22.14;30.49
75656;BME280;64252;51.094;13.714;2023-06-04T09:32:29;100879.88;;;22.25;30.47
75656;BME280;64252;51.094;13.714;2023-06-04T09:35:07;100883.97;;;21.99;29.88
75656;BME280;64252;51.094;13.714;2023-06-04T09:37:34;100883.13;;;22.27;30.49
75656;BME280;64252;51.094;13.714;2023-06-04T09:40:00;100872.69;;;22.46;31.21
75656;BME280;64252;51.094;13.714;2023-06-04T09:42:26;100869.88;;;22.42;30.09
75656;BME280;64252;51.094;13.714;2023-06-04T09:44:51;100873.75;;;22.10;29.92
75656;BME280;64252;51.094;13.714;2023-06-04T09:47:17;100878.50;;;21.88;28.68
75656;BME280;64252;51.094;13.714;2023-06-04T09:49:45;100861.00;;;22.11;29.83
75656;BME280;64252;51.094;13.714;2023-06-04T09:52:12;100864.81;;;22.33;30.01
75656;BME280;64252;51.094;13.714;2023-06-04T09:54:41;100860.69;;;22.35;29.58
75656;BME280;64252;51.094;13.714;2023-06-04T09:57:17;100867.16;;;21.68;29.29
75656;BME280;64252;51.094;13.714;2023-06-04T09:59:45;100878.41;;;21.92;30.17
75656;BME280;64252;51.094;13.714;2023-06-04T10:02:20;100856.91;;;21.67;28.52
75656;BME280;64252;51.094;13.714;2023-06-04T10:04:54;100866.78;;;21.66;29.31
75656;BME280;64252;51.094;13.714;2023-06-04T10:07:26;100868.56;;;21.76;31.06
75656;BME280;64252;51.094;13.714;2023-06-04T10:09:52;100865.50;;;21.55;31.48
75656;BME280;64252;51.094;13.714;2023-06-04T10:12:29;100863.25;;;22.04;30.82
75656;BME280;64252;51.094;13.714;2023-06-04T10:15:04;100866.31;;;22.13;30.55
75656;BME280;64252;51.094;13.714;2023-06-04T10:17:32;100860.75;;;21.77;29.97
75656;BME280;64252;51.094;13.714;2023-06-04T10:20:01;100858.31;;;22.04;30.87
75656;BME280;64252;51.094;13.714;2023-06-04T10:22:28;100856.31;;;21.88;29.89
75656;BME280;64252;51.094;13.714;2023-06-04T10:24:54;100862.63;;;21.83;30.60
75656;BME280;64252;51.094;13.714;2023-06-04T10:27:20;100860.75;;;21.48;30.52
75656;BME280;64252;51.094;13.714;2023-06-04T10:29:47;100859.03;;;21.79;32.08
75656;BME280;64252;51.094;13.714;2023-06-04T10:32:22;100852.50;;;21.92;30.70
75656;BME280;64252;51.094;13.714;2023-06-04T10:34:47;100851.47;;;22.27;31.43
75656;BME280;64252;51.094;13.714;2023-06-04T10:37:21;100866.94;;;21.75;29.54
75656;BME280;64252;51.094;13.714;2023-06-04T10:39:54;100863.13;;;21.66;31.23
75656;BME280;64252;51.094;13.714;2023-06-04T10:42:21;100856.19;;;21.92;30.39
75656;BME280;64252;51.094;13.714;2023-06-04T10:44:49;100863.28;;;21.75;29.00
75656;BME280;64252;51.094;13.714;2023-06-04T10:47:20;100864.28;;;21.68;30.35
75656;BME280;64252;51.094;13.714;2023-06-04T10:49:46;100856.13;;;21.96;30.02
75656;BME280;64252;51.094;13.714;2023-06-04T10:52:11;100862.63;;;21.83;29.86
75656;BME280;64252;51.094;13.714;2023-06-04T10:54:37;100863.19;;;21.91;30.70
75656;BME280;64252;51.094;13.714;2023-06-04T10:57:13;100860.06;;;21.85;29.14
75656;BME280;64252;51.094;13.714;2023-06-04T10:59:39;100850.63;;;22.14;30.58
75656;BME280;64252;51.094;13.714;2023-06-04T11:02:06;100845.97;;;22.45;31.26
75656;BME280;64252;51.094;13.714;2023-06-04T11:04:32;100852.38;;;22.37;30.09
75656;BME280;64252;51.094;13.714;2023-06-04T11:09:32;100843.97;;;22.42;31.23
75656;BME280;64252;51.094;13.714;2023-06-04T11:11:59;100846.28;;;22.47;31.92
75656;BME280;64252;51.094;13.714;2023-06-04T11:14:25;100836.75;;;22.50;29.77
75656;BME280;64252;51.094;13.714;2023-06-04T11:16:51;100832.38;;;22.58;30.63
75656;BME280;64252;51.094;13.714;2023-06-04T11:19:17;100836.19;;;22.81;32.18
75656;BME280;64252;51.094;13.714;2023-06-04T11:21:43;100845.41;;;22.50;27.97
75656;BME280;64252;51.094;13.714;2023-06-04T11:24:09;100839.53;;;22.41;29.20
75656;BME280;64252;51.094;13.714;2023-06-04T11:26:35;100839.28;;;22.48;30.55
75656;BME280;64252;51.094;13.714;2023-06-04T11:29:06;100846.06;;;22.54;28.81
75656;BME280;64252;51.094;13.714;2023-06-04T11:31:45;100838.69;;;22.53;29.14
75656;BME280;64252;51.094;13.714;2023-06-04T11:34:22;100845.38;;;22.38;28.25
75656;BME280;64252;51.094;13.714;2023-06-04T11:36:48;100839.03;;;22.30;28.52
75656;BME280;64252;51.094;13.714;2023-06-04T11:39:16;100838.69;;;22.15;29.13
75656;BME280;64252;51.094;13.714;2023-06-04T11:41:41;100832.56;;;22.13;29.53
75656;BME280;64252;51.094;13.714;2023-06-04T11:44:08;100828.66;;;22.20;29.27
75656;BME280;64252;51.094;13.714;2023-06-04T11:46:40;100835.84;;;22.41;30.20
75656;BME280;64252;51.094;13.714;2023-06-04T11:49:06;100839.72;;;22.21;29.79
75656;BME280;64252;51.094;13.714;2023-06-04T11:51:33;100838.88;;;22.08;29.85
75656;BME280;64252;51.094;13.714;2023-06-04T11:53:58;100833.16;;;22.46;29.50
75656;BME280;64252;51.094;13.714;2023-06-04T11:56:24;100837.66;;;22.47;29.53
75656;BME280;64252;51.094;13.714;2023-06-04T11:58:56;100836.38;;;22.23;28.84
75656;BME280;64252;51.094;13.714;2023-06-04T12:01:22;100835.25;;;22.58;29.93
75656;BME280;64252;51.094;13.714;2023-06-04T12:03:48;100841.44;;;22.19;28.46
75656;BME280;64252;51.094;13.714;2023-06-04T12:06:16;100842.38;;;22.16;29.40
75656;BME280;64252;51.094;13.714;2023-06-04T12:08:54;100844.47;;;22.53;30.54
75656;BME280;64252;51.094;13.714;2023-06-04T12:11:26;100830.88;;;22.54;28.75
75656;BME280;64252;51.094;13.714;2023-06-04T12:14:00;100819.59;;;22.59;28.84
75656;BME280;64252;51.094;13.714;2023-06-04T12:16:26;100823.84;;;22.80;29.83
75656;BME280;64252;51.094;13.714;2023-06-04T12:18:52;100822.81;;;22.87;29.13
75656;BME280;64252;51.094;13.714;2023-06-04T12:21:29;100811.28;;;22.87;28.84
75656;BME280;64252;51.094;13.714;2023-06-04T12:24:05;100820.34;;;22.98;29.83
75656;BME280;64252;51.094;13.714;2023-06-04T12:26:32;100817.59;;;23.07;29.25
75656;BME280;64252;51.094;13.714;2023-06-04T12:29:10;100822.06;;;23.08;28.80
75656;BME280;64252;51.094;13.714;2023-06-04T12:31:40;100824.31;;;22.91;28.63
75656;BME280;64252;51.094;13.714;2023-06-04T12:34:06;100829.34;;;23.00;29.62
75656;BME280;64252;51.094;13.714;2023-06-04T12:36:31;100821.66;;;22.97;29.46
75656;BME280;64252;51.094;13.714;2023-06-04T12:39:03;100817.72;;;22.91;30.85
75656;BME280;64252;51.094;13.714;2023-06-04T12:41:32;100811.53;;;22.80;29.59
75656;BME280;64252;51.094;13.714;2023-06-04T12:43:59;100811.16;;;22.90;30.25
75656;BME280;64252;51.094;13.714;2023-06-04T12:46:25;100803.88;;;23.11;30.38
75656;BME280;64252;51.094;13.714;2023-06-04T12:48:52;100809.19;;;23.34;29.77
75656;BME280;64252;51.094;13.714;2023-06-04T12:51:18;100810.19;;;23.40;30.49
75656;BME280;64252;51.094;13.714;2023-06-04T12:53:46;100801.88;;;23.21;29.08
75656;BME280;64252;51.094;13.714;2023-06-04T12:56:12;100807.34;;;22.93;28.84
75656;BME280;64252;51.094;13.714;2023-06-04T12:58:38;100802.47;;;23.15;29.42